Listerhav — ZDKC7 — position and weather

sailwx.info

Track history (hours):
 
Tides and Currents Weather Stations Pressure Air Temp Water Temp Dewpoint Dewpoint Depression Visibility Wind Speed Wind Dir Waves Ship Positions

Listerhav

Last reported at 2014-Jul-28 16:25 UTC. Time now 2014-Jul-28 18:30 UTC.
Position N 56°10' E 014°52'.

Length 88 m; draft 6 m.

Type: Cargo ship. MMSI: 236591000.

Date/timePositionNaut miles runAvg speedWind from/ knotsBaromVisibWave heightAir tempDewpointWater temp
2014-Jul-28 16:25N 56°10' E 014°52'0 0.0
2014-Jul-28 15:31N 56°10' E 014°52'0 0.0
2014-Jul-28 14:31N 56°10' E 014°52'1 0.1
2014-Jul-28 01:23N 56°09' E 014°52'9 8.4
2014-Jul-28 00:17N 56°00' E 014°48'6 8.8
2014-Jul-27 23:33N 55°54' E 014°44'9 8.7
2014-Jul-27 22:33N 55°46' E 014°37'9 8.6
2014-Jul-27 21:33N 55°38' E 014°31'9 8.7
2014-Jul-27 20:33N 55°30' E 014°25'8 8.4
2014-Jul-27 19:33N 55°24' E 014°16'9 0.3
2014-Jul-26 10:13N 55°14' E 014°16'710.4
2014-Jul-26 09:31N 55°20' E 014°24'1010.1
2014-Jul-26 08:33N 55°29' E 014°32'10 9.9
2014-Jul-26 07:32N 55°38' E 014°36'1010.0
2014-Jul-26 06:33N 55°48' E 014°41'1010.3
2014-Jul-26 05:33N 55°58' E 014°47'10 1.9
2014-Jul-26 00:29N 56°07' E 014°52'0 0.0
2014-Jul-25 17:29N 56°07' E 014°52'0 0.0
2014-Jul-25 16:29N 56°07' E 014°52'0 0.0
2014-Jul-25 15:29N 56°07' E 014°52'0 0.0
2014-Jul-25 14:29N 56°07' E 014°52'0 0.0
2014-Jul-25 13:29N 56°07' E 014°52'0 0.0
2014-Jul-25 12:16N 56°07' E 014°52'0 0.0
2014-Jul-25 11:28N 56°07' E 014°52'0 0.0
2014-Jul-25 09:10N 56°07' E 014°52'0 0.0
2014-Jul-25 06:25N 56°07' E 014°52'0 0.0
2014-Jul-25 05:31N 56°07' E 014°52'0 0.0
2014-Jul-25 02:22N 56°07' E 014°52'0 0.0
2014-Jul-25 01:25N 56°07' E 014°52'0 0.0
2014-Jul-25 00:28N 56°07' E 014°52'0 0.0
2014-Jul-24 23:10N 56°07' E 014°52'0 0.0
2014-Jul-24 22:10N 56°07' E 014°52'0 0.0
2014-Jul-24 21:28N 56°07' E 014°52'0 0.0
2014-Jul-24 20:31N 56°07' E 014°52'0 0.1
2014-Jul-24 19:28N 56°07' E 014°52'0 0.0
2014-Jul-24 17:16N 56°07' E 014°52'0 0.0
2014-Jul-24 13:19N 56°07' E 014°52'0 0.0
2014-Jul-24 12:28N 56°07' E 014°52'0 0.0
2014-Jul-24 11:22N 56°07' E 014°52'0 0.0
2014-Jul-24 10:31N 56°07' E 014°52'0 0.0
2014-Jul-24 09:28N 56°07' E 014°52'0 0.0
2014-Jul-24 08:04N 56°07' E 014°52'0 0.0
2014-Jul-24 06:28N 56°07' E 014°52'0 0.0
2014-Jul-23 23:15N 56°07' E 014°52'0 0.0
2014-Jul-23 13:21N 56°07' E 014°52'0 0.0
2014-Jul-23 12:33N 56°07' E 014°52'0 0.0
2014-Jul-23 02:22N 56°07' E 014°52'3 0.1
2014-Jul-22 08:04N 56°10' E 014°52'0 0.0
2014-Jul-22 07:28N 56°10' E 014°52'2 0.6
2014-Jul-22 04:33N 56°08' E 014°53'2 0.8
2014-Jul-22 02:32N 56°07' E 014°52'0 0.0
2014-Jul-22 01:26N 56°07' E 014°52'0 0.0
2014-Jul-22 00:26N 56°07' E 014°52'0 0.0
2014-Jul-21 04:19N 56°07' E 014°52'0 0.0
2014-Jul-21 02:25N 56°07' E 014°52'0 0.0
2014-Jul-21 01:28N 56°07' E 014°52'0 0.0
2014-Jul-20 23:10N 56°07' E 014°52'0 0.0
2014-Jul-20 22:31N 56°07' E 014°52'0 0.0
2014-Jul-20 20:31N 56°07' E 014°52'0 0.0
2014-Jul-20 19:25N 56°07' E 014°52'0 0.0
2014-Jul-20 18:31N 56°07' E 014°52'0 0.0
2014-Jul-20 17:13N 56°07' E 014°52'0 0.0
2014-Jul-20 16:25N 56°07' E 014°52'0 0.0
2014-Jul-20 15:31N 56°07' E 014°52'0 0.0
2014-Jul-20 14:31N 56°07' E 014°52'0 0.0
2014-Jul-20 13:13N 56°07' E 014°52'0 0.0
2014-Jul-20 12:13N 56°07' E 014°52'0 0.0
2014-Jul-20 11:19N 56°07' E 014°52'0 0.0
2014-Jul-20 10:31N 56°07' E 014°52'0 0.0
2014-Jul-20 07:30N 56°07' E 014°52'0 0.0
2014-Jul-20 06:30N 56°07' E 014°52'0 0.0
2014-Jul-20 05:33N 56°07' E 014°52'0 0.0
2014-Jul-20 04:30N 56°07' E 014°52'0 0.0
2014-Jul-20 03:30N 56°07' E 014°52'0 0.0
2014-Jul-20 02:33N 56°07' E 014°52'0 0.0
2014-Jul-20 01:33N 56°07' E 014°52'0 0.0
2014-Jul-20 00:33N 56°07' E 014°52'0 0.0
2014-Jul-19 23:30N 56°07' E 014°52'0 0.0
2014-Jul-19 22:33N 56°07' E 014°52'0 0.1
2014-Jul-19 21:33N 56°07' E 014°52'0 0.0
2014-Jul-19 20:33N 56°07' E 014°52'0 0.0
2014-Jul-19 19:30N 56°07' E 014°52'0 0.0
2014-Jul-19 18:30N 56°07' E 014°52'0 0.0
2014-Jul-19 17:33N 56°07' E 014°52'0 0.0
2014-Jul-19 16:33N 56°07' E 014°52'0 0.0
2014-Jul-19 15:33N 56°07' E 014°52'0 0.0
2014-Jul-19 14:30N 56°07' E 014°52'0 0.0
2014-Jul-19 13:30N 56°07' E 014°52'0 0.0
2014-Jul-19 12:30N 56°07' E 014°52'0 0.0
2014-Jul-19 11:30N 56°07' E 014°52'0 0.0
2014-Jul-19 10:30N 56°07' E 014°52'0 0.0
2014-Jul-19 09:30N 56°07' E 014°52'0 0.0
2014-Jul-19 06:30N 56°07' E 014°52'0 0.0
2014-Jul-19 05:33N 56°07' E 014°52'0 0.1
2014-Jul-19 04:30N 56°07' E 014°52'0 0.0
2014-Jul-19 00:33N 56°07' E 014°52'0 0.0
2014-Jul-18 23:33N 56°07' E 014°52'0 0.0
2014-Jul-18 22:33N 56°07' E 014°52'0 0.0
2014-Jul-18 21:30N 56°07' E 014°52'0 0.0
2014-Jul-18 20:33N 56°07' E 014°52'0 0.0
2014-Jul-18 19:32N 56°07' E 014°52'0 0.0
2014-Jul-18 18:14N 56°07' E 014°52'  
Track history (hours):
 
Tides and Currents Weather Stations Pressure Air Temp Water Temp Dewpoint Dewpoint Depression Visibility Wind Speed Wind Dir Waves Ship Positions

Listerhav

Last reported at 2014-Jul-28 16:25 UTC. Time now 2014-Jul-28 18:30 UTC.
Position N 56°10' E 014°52'.

Length 88 m; draft 6 m.

Type: Cargo ship. MMSI: 236591000.

Date/timePositionNaut miles runAvg speedWind from/ knotsBaromVisibWave heightAir tempDewpointWater temp
2014-Jul-28 16:25N 56°10' E 014°52'0 0.0
2014-Jul-28 15:31N 56°10' E 014°52'0 0.0
2014-Jul-28 14:31N 56°10' E 014°52'1 0.1
2014-Jul-28 01:23N 56°09' E 014°52'9 8.4
2014-Jul-28 00:17N 56°00' E 014°48'6 8.8
2014-Jul-27 23:33N 55°54' E 014°44'9 8.7
2014-Jul-27 22:33N 55°46' E 014°37'9 8.6
2014-Jul-27 21:33N 55°38' E 014°31'9 8.7
2014-Jul-27 20:33N 55°30' E 014°25'8 8.4
2014-Jul-27 19:33N 55°24' E 014°16'9 0.3
2014-Jul-26 10:13N 55°14' E 014°16'710.4
2014-Jul-26 09:31N 55°20' E 014°24'1010.1
2014-Jul-26 08:33N 55°29' E 014°32'10 9.9
2014-Jul-26 07:32N 55°38' E 014°36'1010.0
2014-Jul-26 06:33N 55°48' E 014°41'1010.3
2014-Jul-26 05:33N 55°58' E 014°47'10 1.9
2014-Jul-26 00:29N 56°07' E 014°52'0 0.0
2014-Jul-25 17:29N 56°07' E 014°52'0 0.0
2014-Jul-25 16:29N 56°07' E 014°52'0 0.0
2014-Jul-25 15:29N 56°07' E 014°52'0 0.0
2014-Jul-25 14:29N 56°07' E 014°52'0 0.0
2014-Jul-25 13:29N 56°07' E 014°52'0 0.0
2014-Jul-25 12:16N 56°07' E 014°52'0 0.0
2014-Jul-25 11:28N 56°07' E 014°52'0 0.0
2014-Jul-25 09:10N 56°07' E 014°52'0 0.0
2014-Jul-25 06:25N 56°07' E 014°52'0 0.0
2014-Jul-25 05:31N 56°07' E 014°52'0 0.0
2014-Jul-25 02:22N 56°07' E 014°52'0 0.0
2014-Jul-25 01:25N 56°07' E 014°52'0 0.0
2014-Jul-25 00:28N 56°07' E 014°52'0 0.0
2014-Jul-24 23:10N 56°07' E 014°52'0 0.0
2014-Jul-24 22:10N 56°07' E 014°52'0 0.0
2014-Jul-24 21:28N 56°07' E 014°52'0 0.0
2014-Jul-24 20:31N 56°07' E 014°52'0 0.1
2014-Jul-24 19:28N 56°07' E 014°52'0 0.0
2014-Jul-24 17:16N 56°07' E 014°52'0 0.0
2014-Jul-24 13:19N 56°07' E 014°52'0 0.0
2014-Jul-24 12:28N 56°07' E 014°52'0 0.0
2014-Jul-24 11:22N 56°07' E 014°52'0 0.0
2014-Jul-24 10:31N 56°07' E 014°52'0 0.0
2014-Jul-24 09:28N 56°07' E 014°52'0 0.0
2014-Jul-24 08:04N 56°07' E 014°52'0 0.0
2014-Jul-24 06:28N 56°07' E 014°52'0 0.0
2014-Jul-23 23:15N 56°07' E 014°52'0 0.0
2014-Jul-23 13:21N 56°07' E 014°52'0 0.0
2014-Jul-23 12:33N 56°07' E 014°52'0 0.0
2014-Jul-23 02:22N 56°07' E 014°52'3 0.1
2014-Jul-22 08:04N 56°10' E 014°52'0 0.0
2014-Jul-22 07:28N 56°10' E 014°52'2 0.6
2014-Jul-22 04:33N 56°08' E 014°53'2 0.8
2014-Jul-22 02:32N 56°07' E 014°52'0 0.0
2014-Jul-22 01:26N 56°07' E 014°52'0 0.0
2014-Jul-22 00:26N 56°07' E 014°52'0 0.0
2014-Jul-21 04:19N 56°07' E 014°52'0 0.0
2014-Jul-21 02:25N 56°07' E 014°52'0 0.0
2014-Jul-21 01:28N 56°07' E 014°52'0 0.0
2014-Jul-20 23:10N 56°07' E 014°52'0 0.0
2014-Jul-20 22:31N 56°07' E 014°52'0 0.0
2014-Jul-20 20:31N 56°07' E 014°52'0 0.0
2014-Jul-20 19:25N 56°07' E 014°52'0 0.0
2014-Jul-20 18:31N 56°07' E 014°52'0 0.0
2014-Jul-20 17:13N 56°07' E 014°52'0 0.0
2014-Jul-20 16:25N 56°07' E 014°52'0 0.0
2014-Jul-20 15:31N 56°07' E 014°52'0 0.0
2014-Jul-20 14:31N 56°07' E 014°52'0 0.0
2014-Jul-20 13:13N 56°07' E 014°52'0 0.0
2014-Jul-20 12:13N 56°07' E 014°52'0 0.0
2014-Jul-20 11:19N 56°07' E 014°52'0 0.0
2014-Jul-20 10:31N 56°07' E 014°52'0 0.0
2014-Jul-20 07:30N 56°07' E 014°52'0 0.0
2014-Jul-20 06:30N 56°07' E 014°52'0 0.0
2014-Jul-20 05:33N 56°07' E 014°52'0 0.0
2014-Jul-20 04:30N 56°07' E 014°52'0 0.0
2014-Jul-20 03:30N 56°07' E 014°52'0 0.0
2014-Jul-20 02:33N 56°07' E 014°52'0 0.0
2014-Jul-20 01:33N 56°07' E 014°52'0 0.0
2014-Jul-20 00:33N 56°07' E 014°52'0 0.0
2014-Jul-19 23:30N 56°07' E 014°52'0 0.0
2014-Jul-19 22:33N 56°07' E 014°52'0 0.1
2014-Jul-19 21:33N 56°07' E 014°52'0 0.0
2014-Jul-19 20:33N 56°07' E 014°52'0 0.0
2014-Jul-19 19:30N 56°07' E 014°52'0 0.0
2014-Jul-19 18:30N 56°07' E 014°52'0 0.0
2014-Jul-19 17:33N 56°07' E 014°52'0 0.0
2014-Jul-19 16:33N 56°07' E 014°52'0 0.0
2014-Jul-19 15:33N 56°07' E 014°52'0 0.0
2014-Jul-19 14:30N 56°07' E 014°52'0 0.0
2014-Jul-19 13:30N 56°07' E 014°52'0 0.0
2014-Jul-19 12:30N 56°07' E 014°52'0 0.0
2014-Jul-19 11:30N 56°07' E 014°52'0 0.0
2014-Jul-19 10:30N 56°07' E 014°52'0 0.0
2014-Jul-19 09:30N 56°07' E 014°52'0 0.0
2014-Jul-19 06:30N 56°07' E 014°52'0 0.0
2014-Jul-19 05:33N 56°07' E 014°52'0 0.1
2014-Jul-19 04:30N 56°07' E 014°52'0 0.0
2014-Jul-19 00:33N 56°07' E 014°52'0 0.0
2014-Jul-18 23:33N 56°07' E 014°52'0 0.0
2014-Jul-18 22:33N 56°07' E 014°52'0 0.0
2014-Jul-18 21:30N 56°07' E 014°52'0 0.0
2014-Jul-18 20:33N 56°07' E 014°52'0 0.0
2014-Jul-18 19:32N 56°07' E 014°52'0 0.0
2014-Jul-18 18:14N 56°07' E 014°52'  

Dump ship's entire track history